sensor_id;sensor_type;location;lat;lon;timestamp;temperature;humidity
41985;DHT22;28319;48.116;10.818;2022-12-18T00:04:23;-3.70;99.90
41985;DHT22;28319;48.116;10.818;2022-12-18T00:09:27;-3.90;99.90
41985;DHT22;28319;48.116;10.818;2022-12-18T00:14:29;-3.90;99.90
41985;DHT22;28319;48.116;10.818;2022-12-18T00:19:31;-3.90;99.90
41985;DHT22;28319;48.116;10.818;2022-12-18T00:24:35;-4.10;99.90
41985;DHT22;28319;48.116;10.818;2022-12-18T00:29:37;-3.90;99.90
41985;DHT22;28319;48.116;10.818;2022-12-18T00:34:39;-3.80;99.90
41985;DHT22;28319;48.116;10.818;2022-12-18T00:39:43;-3.70;99.90
41985;DHT22;28319;48.116;10.818;2022-12-18T00:44:45;-3.70;99.90
41985;DHT22;28319;48.116;10.818;2022-12-18T00:49:47;-3.80;99.90
41985;DHT22;28319;48.116;10.818;2022-12-18T00:54:50;-3.80;99.90
41985;DHT22;28319;48.116;10.818;2022-12-18T00:59:52;-4.00;99.90
41985;DHT22;28319;48.116;10.818;2022-12-18T01:04:54;-3.90;99.90
41985;DHT22;28319;48.116;10.818;2022-12-18T01:09:58;-3.90;99.90
41985;DHT22;28319;48.116;10.818;2022-12-18T01:15:00;-4.00;99.90
41985;DHT22;28319;48.116;10.818;2022-12-18T01:20:03;-4.00;99.90
41985;DHT22;28319;48.116;10.818;2022-12-18T01:25:07;-3.90;99.90
41985;DHT22;28319;48.116;10.818;2022-12-18T01:30:10;-3.70;99.90
41985;DHT22;28319;48.116;10.818;2022-12-18T01:35:12;-3.70;99.90
41985;DHT22;28319;48.116;10.818;2022-12-18T01:40:16;-3.70;99.90
41985;DHT22;28319;48.116;10.818;2022-12-18T01:45:26;-3.80;99.90
41985;DHT22;28319;48.116;10.818;2022-12-18T01:50:31;-3.80;99.90
41985;DHT22;28319;48.116;10.818;2022-12-18T01:55:39;-3.70;99.90
41985;DHT22;28319;48.116;10.818;2022-12-18T02:00:44;-3.60;99.90
41985;DHT22;28319;48.116;10.818;2022-12-18T02:05:49;-3.70;99.90
41985;DHT22;28319;48.116;10.818;2022-12-18T02:11:03;-3.80;99.90
41985;DHT22;28319;48.116;10.818;2022-12-18T02:16:12;-4.00;99.90
41985;DHT22;28319;48.116;10.818;2022-12-18T02:21:25;-3.90;99.90
41985;DHT22;28319;48.116;10.818;2022-12-18T02:26:33;-3.90;99.90
41985;DHT22;28319;48.116;10.818;2022-12-18T02:31:39;-3.90;99.90
41985;DHT22;28319;48.116;10.818;2022-12-18T02:36:44;-3.90;99.90
41985;DHT22;28319;48.116;10.818;2022-12-18T02:41:49;-3.90;99.90
41985;DHT22;28319;48.116;10.818;2022-12-18T02:46:52;-3.80;99.90
41985;DHT22;28319;48.116;10.818;2022-12-18T02:52:01;-3.70;99.90
41985;DHT22;28319;48.116;10.818;2022-12-18T02:57:12;-3.60;99.90
41985;DHT22;28319;48.116;10.818;2022-12-18T03:02:21;-3.70;99.90
41985;DHT22;28319;48.116;10.818;2022-12-18T03:07:33;-3.70;99.90
41985;DHT22;28319;48.116;10.818;2022-12-18T03:12:41;-3.70;99.90
41985;DHT22;28319;48.116;10.818;2022-12-18T03:17:48;-3.70;99.90
41985;DHT22;28319;48.116;10.818;2022-12-18T03:22:57;-3.80;99.90
41985;DHT22;28319;48.116;10.818;2022-12-18T03:28:03;-3.80;99.90
41985;DHT22;28319;48.116;10.818;2022-12-18T03:33:12;-3.80;99.90
41985;DHT22;28319;48.116;10.818;2022-12-18T03:38:18;-3.70;99.90
41985;DHT22;28319;48.116;10.818;2022-12-18T03:43:30;-3.80;99.90
41985;DHT22;28319;48.116;10.818;2022-12-18T03:48:41;-3.70;99.90
41985;DHT22;28319;48.116;10.818;2022-12-18T03:53:49;-3.70;99.90
41985;DHT22;28319;48.116;10.818;2022-12-18T03:58:55;-3.60;99.90
41985;DHT22;28319;48.116;10.818;2022-12-18T04:04:00;-3.50;99.90
41985;DHT22;28319;48.116;10.818;2022-12-18T04:09:04;-3.40;99.90
41985;DHT22;28319;48.116;10.818;2022-12-18T04:14:08;-3.40;99.90
41985;DHT22;28319;48.116;10.818;2022-12-18T04:19:10;-3.50;99.90
41985;DHT22;28319;48.116;10.818;2022-12-18T04:24:12;-3.40;99.90
41985;DHT22;28319;48.116;10.818;2022-12-18T04:29:15;-3.50;99.90
41985;DHT22;28319;48.116;10.818;2022-12-18T04:34:17;-3.70;99.90
41985;DHT22;28319;48.116;10.818;2022-12-18T04:39:19;-3.70;99.90
41985;DHT22;28319;48.116;10.818;2022-12-18T04:44:23;-3.70;99.90
41985;DHT22;28319;48.116;10.818;2022-12-18T04:49:25;-3.80;99.90
41985;DHT22;28319;48.116;10.818;2022-12-18T04:54:28;-3.70;99.90
41985;DHT22;28319;48.116;10.818;2022-12-18T04:59:31;-3.80;99.90
41985;DHT22;28319;48.116;10.818;2022-12-18T05:04:33;-3.80;99.90
41985;DHT22;28319;48.116;10.818;2022-12-18T05:09:35;-3.80;99.90
41985;DHT22;28319;48.116;10.818;2022-12-18T05:14:39;-3.80;99.90
41985;DHT22;28319;48.116;10.818;2022-12-18T05:19:41;-3.90;99.90
41985;DHT22;28319;48.116;10.818;2022-12-18T05:24:44;-3.90;99.90
41985;DHT22;28319;48.116;10.818;2022-12-18T05:29:47;-3.80;99.90
41985;DHT22;28319;48.116;10.818;2022-12-18T05:34:49;-3.90;99.90
41985;DHT22;28319;48.116;10.818;2022-12-18T05:39:51;-3.80;99.90
41985;DHT22;28319;48.116;10.818;2022-12-18T05:44:55;-3.70;99.90
41985;DHT22;28319;48.116;10.818;2022-12-18T05:49:57;-3.70;99.90
41985;DHT22;28319;48.116;10.818;2022-12-18T05:55:00;-3.50;99.90
41985;DHT22;28319;48.116;10.818;2022-12-18T06:00:05;-3.60;99.90
41985;DHT22;28319;48.116;10.818;2022-12-18T06:05:07;-3.70;99.90
41985;DHT22;28319;48.116;10.818;2022-12-18T06:10:09;-3.60;99.90
41985;DHT22;28319;48.116;10.818;2022-12-18T06:15:13;-3.60;99.90
41985;DHT22;28319;48.116;10.818;2022-12-18T06:20:16;-3.60;99.90
41985;DHT22;28319;48.116;10.818;2022-12-18T06:25:18;-3.70;99.90
41985;DHT22;28319;48.116;10.818;2022-12-18T06:30:21;-3.70;99.90
41985;DHT22;28319;48.116;10.818;2022-12-18T06:35:23;-3.70;99.90
41985;DHT22;28319;48.116;10.818;2022-12-18T06:40:25;-3.70;99.90
41985;DHT22;28319;48.116;10.818;2022-12-18T06:45:29;-3.80;99.90
41985;DHT22;28319;48.116;10.818;2022-12-18T06:50:31;-3.70;99.90
41985;DHT22;28319;48.116;10.818;2022-12-18T06:55:33;-3.80;99.90
41985;DHT22;28319;48.116;10.818;2022-12-18T07:00:36;-3.90;99.90
41985;DHT22;28319;48.116;10.818;2022-12-18T07:05:40;-3.90;99.90
41985;DHT22;28319;48.116;10.818;2022-12-18T07:10:43;-3.90;99.90
41985;DHT22;28319;48.116;10.818;2022-12-18T07:15:46;-3.90;99.90
41985;DHT22;28319;48.116;10.818;2022-12-18T07:20:48;-3.90;99.90
41985;DHT22;28319;48.116;10.818;2022-12-18T07:25:50;-3.80;99.90
41985;DHT22;28319;48.116;10.818;2022-12-18T07:30:54;-3.90;99.90
41985;DHT22;28319;48.116;10.818;2022-12-18T07:35:58;-3.80;99.90
41985;DHT22;28319;48.116;10.818;2022-12-18T07:41:00;-3.80;99.90
41985;DHT22;28319;48.116;10.818;2022-12-18T07:46:05;-3.80;99.90
41985;DHT22;28319;48.116;10.818;2022-12-18T07:51:08;-3.90;99.90
41985;DHT22;28319;48.116;10.818;2022-12-18T07:56:12;-3.90;99.90
41985;DHT22;28319;48.116;10.818;2022-12-18T08:01:15;-3.80;99.90
41985;DHT22;28319;48.116;10.818;2022-12-18T08:06:18;-3.90;99.90
41985;DHT22;28319;48.116;10.818;2022-12-18T08:11:20;-4.00;99.90
41985;DHT22;28319;48.116;10.818;2022-12-18T08:16:24;-3.90;99.90
41985;DHT22;28319;48.116;10.818;2022-12-18T08:21:28;-3.80;99.90
41985;DHT22;28319;48.116;10.818;2022-12-18T08:26:31;-3.80;99.90
41985;DHT22;28319;48.116;10.818;2022-12-18T08:31:34;-3.70;99.90
41985;DHT22;28319;48.116;10.818;2022-12-18T08:36:37;-3.70;99.90
41985;DHT22;28319;48.116;10.818;2022-12-18T08:41:39;-3.80;99.90
41985;DHT22;28319;48.116;10.818;2022-12-18T08:46:43;-3.70;99.90
41985;DHT22;28319;48.116;10.818;2022-12-18T08:51:45;-3.60;99.90
41985;DHT22;28319;48.116;10.818;2022-12-18T08:56:48;-3.70;99.90
41985;DHT22;28319;48.116;10.818;2022-12-18T09:01:53;-3.80;99.90
41985;DHT22;28319;48.116;10.818;2022-12-18T09:06:56;-3.70;99.90
41985;DHT22;28319;48.116;10.818;2022-12-18T09:11:58;-3.80;99.90
41985;DHT22;28319;48.116;10.818;2022-12-18T09:17:02;-3.80;99.90
41985;DHT22;28319;48.116;10.818;2022-12-18T09:22:04;-3.60;99.90
41985;DHT22;28319;48.116;10.818;2022-12-18T09:27:06;-3.60;99.90
41985;DHT22;28319;48.116;10.818;2022-12-18T09:32:09;-3.70;99.90
41985;DHT22;28319;48.116;10.818;2022-12-18T09:37:11;-3.50;99.90
41985;DHT22;28319;48.116;10.818;2022-12-18T09:42:20;-3.50;99.90
41985;DHT22;28319;48.116;10.818;2022-12-18T09:47:28;-3.40;99.90
41985;DHT22;28319;48.116;10.818;2022-12-18T09:52:35;-3.50;99.90
41985;DHT22;28319;48.116;10.818;2022-12-18T09:57:48;-3.30;99.90
41985;DHT22;28319;48.116;10.818;2022-12-18T10:02:58;-3.30;99.90
41985;DHT22;28319;48.116;10.818;2022-12-18T10:08:05;-3.40;99.90
41985;DHT22;28319;48.116;10.818;2022-12-18T10:13:28;-3.30;99.90
41985;DHT22;28319;48.116;10.818;2022-12-18T10:18:50;-3.30;99.90
41985;DHT22;28319;48.116;10.818;2022-12-18T10:24:08;-3.30;99.90
41985;DHT22;28319;48.116;10.818;2022-12-18T10:29:16;-3.30;99.90
41985;DHT22;28319;48.116;10.818;2022-12-18T10:34:20;-3.30;99.90
41985;DHT22;28319;48.116;10.818;2022-12-18T10:39:23;-3.20;99.90
41985;DHT22;28319;48.116;10.818;2022-12-18T10:44:29;-3.10;99.90
41985;DHT22;28319;48.116;10.818;2022-12-18T10:49:35;-2.70;99.90
41985;DHT22;28319;48.116;10.818;2022-12-18T10:54:38;-2.80;99.90
41985;DHT22;28319;48.116;10.818;2022-12-18T10:59:50;-2.60;99.90
41985;DHT22;28319;48.116;10.818;2022-12-18T11:04:54;-2.90;99.90
41985;DHT22;28319;48.116;10.818;2022-12-18T11:10:04;-3.00;99.90
41985;DHT22;28319;48.116;10.818;2022-12-18T11:15:15;-3.00;99.90
41985;DHT22;28319;48.116;10.818;2022-12-18T11:20:27;-3.00;99.90
41985;DHT22;28319;48.116;10.818;2022-12-18T11:25:33;-2.80;99.90
41985;DHT22;28319;48.116;10.818;2022-12-18T11:30:36;-2.80;99.90
41985;DHT22;28319;48.116;10.818;2022-12-18T11:35:44;-2.50;99.90
41985;DHT22;28319;48.116;10.818;2022-12-18T11:40:53;-2.70;99.90
41985;DHT22;28319;48.116;10.818;2022-12-18T11:46:02;-2.70;99.90
41985;DHT22;28319;48.116;10.818;2022-12-18T11:51:12;-2.50;99.90
41985;DHT22;28319;48.116;10.818;2022-12-18T11:56:29;-2.50;99.90
41985;DHT22;28319;48.116;10.818;2022-12-18T12:01:38;-2.20;99.90
41985;DHT22;28319;48.116;10.818;2022-12-18T12:06:49;-2.40;99.90
41985;DHT22;28319;48.116;10.818;2022-12-18T12:12:09;-2.30;99.90
41985;DHT22;28319;48.116;10.818;2022-12-18T12:17:21;-2.30;99.90
41985;DHT22;28319;48.116;10.818;2022-12-18T12:22:32;-2.00;99.90
41985;DHT22;28319;48.116;10.818;2022-12-18T12:27:43;-2.20;99.90
41985;DHT22;28319;48.116;10.818;2022-12-18T12:33:04;-2.40;99.90
41985;DHT22;28319;48.116;10.818;2022-12-18T12:38:13;-2.60;99.90
41985;DHT22;28319;48.116;10.818;2022-12-18T12:43:26;-2.80;99.90
41985;DHT22;28319;48.116;10.818;2022-12-18T12:48:41;-2.50;99.90
41985;DHT22;28319;48.116;10.818;2022-12-18T12:53:46;-2.70;99.90
41985;DHT22;28319;48.116;10.818;2022-12-18T12:58:56;-2.50;99.90
41985;DHT22;28319;48.116;10.818;2022-12-18T13:04:14;-2.40;99.90
41985;DHT22;28319;48.116;10.818;2022-12-18T13:09:22;-2.40;99.90
41985;DHT22;28319;48.116;10.818;2022-12-18T13:14:28;-2.60;99.90
41985;DHT22;28319;48.116;10.818;2022-12-18T13:19:31;-2.90;99.90
41985;DHT22;28319;48.116;10.818;2022-12-18T13:24:35;-2.80;99.90
41985;DHT22;28319;48.116;10.818;2022-12-18T13:29:42;-2.70;99.90
41985;DHT22;28319;48.116;10.818;2022-12-18T13:34:45;-2.90;99.90
41985;DHT22;28319;48.116;10.818;2022-12-18T13:39:49;-2.60;99.90
41985;DHT22;28319;48.116;10.818;2022-12-18T13:44:51;-2.70;99.90
41985;DHT22;28319;48.116;10.818;2022-12-18T13:49:55;-2.70;99.90
41985;DHT22;28319;48.116;10.818;2022-12-18T13:55:01;-2.80;99.90
41985;DHT22;28319;48.116;10.818;2022-12-18T14:00:23;-2.90;99.90
41985;DHT22;28319;48.116;10.818;2022-12-18T14:05:28;-2.80;99.90
41985;DHT22;28319;48.116;10.818;2022-12-18T14:10:32;-2.90;99.90
41985;DHT22;28319;48.116;10.818;2022-12-18T14:15:36;-3.00;99.90
41985;DHT22;28319;48.116;10.818;2022-12-18T14:20:45;-2.80;99.90
41985;DHT22;28319;48.116;10.818;2022-12-18T14:25:50;-2.70;99.90
41985;DHT22;28319;48.116;10.818;2022-12-18T14:30:53;-2.60;99.90
41985;DHT22;28319;48.116;10.818;2022-12-18T14:35:58;-2.50;99.90
41985;DHT22;28319;48.116;10.818;2022-12-18T14:41:04;-2.80;99.90
41985;DHT22;28319;48.116;10.818;2022-12-18T14:46:27;-2.90;99.90
41985;DHT22;28319;48.116;10.818;2022-12-18T14:51:31;-2.80;99.90
41985;DHT22;28319;48.116;10.818;2022-12-18T14:56:42;-2.90;99.90
41985;DHT22;28319;48.116;10.818;2022-12-18T15:01:46;-2.80;99.90
41985;DHT22;28319;48.116;10.818;2022-12-18T15:07:03;-2.90;99.90
41985;DHT22;28319;48.116;10.818;2022-12-18T15:12:22;-2.80;99.90
41985;DHT22;28319;48.116;10.818;2022-12-18T15:17:26;-2.70;99.90
41985;DHT22;28319;48.116;10.818;2022-12-18T15:22:32;-2.80;99.90
41985;DHT22;28319;48.116;10.818;2022-12-18T15:27:36;-3.10;99.90
41985;DHT22;28319;48.116;10.818;2022-12-18T15:32:42;-3.10;99.90
41985;DHT22;28319;48.116;10.818;2022-12-18T15:37:44;-3.30;99.90
41985;DHT22;28319;48.116;10.818;2022-12-18T15:42:48;-3.10;99.90
41985;DHT22;28319;48.116;10.818;2022-12-18T15:48:17;-3.30;99.90
41985;DHT22;28319;48.116;10.818;2022-12-18T15:53:21;-3.20;99.90
41985;DHT22;28319;48.116;10.818;2022-12-18T15:58:26;-3.20;99.90
41985;DHT22;28319;48.116;10.818;2022-12-18T16:03:28;-3.30;99.90
41985;DHT22;28319;48.116;10.818;2022-12-18T16:08:30;-3.40;99.90
41985;DHT22;28319;48.116;10.818;2022-12-18T16:13:34;-3.40;99.90
41985;DHT22;28319;48.116;10.818;2022-12-18T16:18:36;-3.10;99.90
41985;DHT22;28319;48.116;10.818;2022-12-18T16:23:38;-3.00;99.90
41985;DHT22;28319;48.116;10.818;2022-12-18T16:28:41;-2.90;99.90
41985;DHT22;28319;48.116;10.818;2022-12-18T16:33:43;-2.90;99.90
41985;DHT22;28319;48.116;10.818;2022-12-18T16:38:45;-2.90;99.90
41985;DHT22;28319;48.116;10.818;2022-12-18T16:43:49;-3.10;99.90
41985;DHT22;28319;48.116;10.818;2022-12-18T16:48:51;-2.90;99.90
41985;DHT22;28319;48.116;10.818;2022-12-18T16:53:54;-2.90;99.90
41985;DHT22;28319;48.116;10.818;2022-12-18T16:59:00;-2.90;99.90
41985;DHT22;28319;48.116;10.818;2022-12-18T17:04:04;-2.90;99.90
41985;DHT22;28319;48.116;10.818;2022-12-18T17:09:08;-2.90;99.90
41985;DHT22;28319;48.116;10.818;2022-12-18T17:14:15;-2.90;99.90
41985;DHT22;28319;48.116;10.818;2022-12-18T17:19:18;-2.90;99.90
41985;DHT22;28319;48.116;10.818;2022-12-18T17:24:21;-3.10;99.90
41985;DHT22;28319;48.116;10.818;2022-12-18T17:29:25;-3.50;99.90
41985;DHT22;28319;48.116;10.818;2022-12-18T17:34:27;-3.20;99.90
41985;DHT22;28319;48.116;10.818;2022-12-18T17:39:29;-3.20;99.90
41985;DHT22;28319;48.116;10.818;2022-12-18T17:44:33;-3.10;99.90
41985;DHT22;28319;48.116;10.818;2022-12-18T17:49:35;-3.20;99.90
41985;DHT22;28319;48.116;10.818;2022-12-18T17:54:37;-3.00;99.90
41985;DHT22;28319;48.116;10.818;2022-12-18T17:59:43;-3.10;99.90
41985;DHT22;28319;48.116;10.818;2022-12-18T18:04:45;-3.10;99.90
41985;DHT22;28319;48.116;10.818;2022-12-18T18:09:47;-3.00;99.90
41985;DHT22;28319;48.116;10.818;2022-12-18T18:14:50;-3.00;99.90
41985;DHT22;28319;48.116;10.818;2022-12-18T18:19:52;-3.10;99.90
41985;DHT22;28319;48.116;10.818;2022-12-18T18:24:55;-3.00;99.90
41985;DHT22;28319;48.116;10.818;2022-12-18T18:29:58;-2.90;99.90
41985;DHT22;28319;48.116;10.818;2022-12-18T18:35:00;-2.90;99.90
41985;DHT22;28319;48.116;10.818;2022-12-18T18:40:03;-2.90;99.90
41985;DHT22;28319;48.116;10.818;2022-12-18T18:45:09;-2.90;99.90
41985;DHT22;28319;48.116;10.818;2022-12-18T18:50:11;-2.80;99.90
41985;DHT22;28319;48.116;10.818;2022-12-18T18:55:13;-2.80;99.90
41985;DHT22;28319;48.116;10.818;2022-12-18T19:00:18;-3.00;99.90
41985;DHT22;28319;48.116;10.818;2022-12-18T19:05:20;-2.90;99.90
41985;DHT22;28319;48.116;10.818;2022-12-18T19:10:25;-3.00;99.90
41985;DHT22;28319;48.116;10.818;2022-12-18T19:15:29;-3.00;99.90
41985;DHT22;28319;48.116;10.818;2022-12-18T19:20:31;-2.90;99.90
41985;DHT22;28319;48.116;10.818;2022-12-18T19:25:36;-3.20;99.90
41985;DHT22;28319;48.116;10.818;2022-12-18T19:30:40;-3.30;99.90
41985;DHT22;28319;48.116;10.818;2022-12-18T19:35:42;-3.60;99.90
41985;DHT22;28319;48.116;10.818;2022-12-18T19:40:44;-3.40;99.90
41985;DHT22;28319;48.116;10.818;2022-12-18T19:45:53;-3.40;99.90
41985;DHT22;28319;48.116;10.818;2022-12-18T19:50:55;-3.40;99.90
41985;DHT22;28319;48.116;10.818;2022-12-18T19:55:57;-3.30;99.90
41985;DHT22;28319;48.116;10.818;2022-12-18T20:01:01;-3.30;99.90
41985;DHT22;28319;48.116;10.818;2022-12-18T20:06:08;-3.40;99.90
41985;DHT22;28319;48.116;10.818;2022-12-18T20:11:10;-3.40;99.90
41985;DHT22;28319;48.116;10.818;2022-12-18T20:16:14;-3.40;99.90
41985;DHT22;28319;48.116;10.818;2022-12-18T20:21:16;-3.50;99.90
41985;DHT22;28319;48.116;10.818;2022-12-18T20:26:18;-3.70;99.90
41985;DHT22;28319;48.116;10.818;2022-12-18T20:31:22;-3.70;99.90
41985;DHT22;28319;48.116;10.818;2022-12-18T20:36:24;-3.60;99.90
41985;DHT22;28319;48.116;10.818;2022-12-18T20:41:26;-3.70;99.90
41985;DHT22;28319;48.116;10.818;2022-12-18T20:46:30;-3.70;99.90
41985;DHT22;28319;48.116;10.818;2022-12-18T20:51:35;-3.50;99.90
41985;DHT22;28319;48.116;10.818;2022-12-18T20:56:38;-3.40;99.90
41985;DHT22;28319;48.116;10.818;2022-12-18T21:01:41;-3.30;99.90
41985;DHT22;28319;48.116;10.818;2022-12-18T21:06:43;-3.30;99.90
41985;DHT22;28319;48.116;10.818;2022-12-18T21:11:46;-3.30;99.90
41985;DHT22;28319;48.116;10.818;2022-12-18T21:17:07;-3.30;99.90
41985;DHT22;28319;48.116;10.818;2022-12-18T21:22:09;-3.30;99.90
41985;DHT22;28319;48.116;10.818;2022-12-18T21:27:11;-3.20;99.90
41985;DHT22;28319;48.116;10.818;2022-12-18T21:32:14;-3.30;99.90
41985;DHT22;28319;48.116;10.818;2022-12-18T21:37:17;-3.40;99.90
41985;DHT22;28319;48.116;10.818;2022-12-18T21:42:19;-3.20;99.90
41985;DHT22;28319;48.116;10.818;2022-12-18T21:47:39;-3.30;99.90
41985;DHT22;28319;48.116;10.818;2022-12-18T21:52:41;-3.30;99.90
41985;DHT22;28319;48.116;10.818;2022-12-18T21:57:43;-3.20;99.90
41985;DHT22;28319;48.116;10.818;2022-12-18T22:02:47;-3.10;99.90
41985;DHT22;28319;48.116;10.818;2022-12-18T22:07:49;-3.10;99.90
41985;DHT22;28319;48.116;10.818;2022-12-18T22:12:51;-3.10;99.90
41985;DHT22;28319;48.116;10.818;2022-12-18T22:17:55;-3.00;99.90
41985;DHT22;28319;48.116;10.818;2022-12-18T22:22:57;-3.00;99.90
41985;DHT22;28319;48.116;10.818;2022-12-18T22:27:59;-3.00;99.90
41985;DHT22;28319;48.116;10.818;2022-12-18T22:33:20;-3.00;99.90
41985;DHT22;28319;48.116;10.818;2022-12-18T22:38:22;-3.10;99.90
41985;DHT22;28319;48.116;10.818;2022-12-18T22:43:24;-3.10;99.90
41985;DHT22;28319;48.116;10.818;2022-12-18T22:48:28;-3.10;99.90
41985;DHT22;28319;48.116;10.818;2022-12-18T22:53:30;-3.40;99.90
41985;DHT22;28319;48.116;10.818;2022-12-18T22:58:32;-3.50;99.90
41985;DHT22;28319;48.116;10.818;2022-12-18T23:03:36;-3.50;99.90
41985;DHT22;28319;48.116;10.818;2022-12-18T23:08:38;-3.60;99.90
41985;DHT22;28319;48.116;10.818;2022-12-18T23:13:41;-3.30;99.90
41985;DHT22;28319;48.116;10.818;2022-12-18T23:18:44;-3.20;99.90
41985;DHT22;28319;48.116;10.818;2022-12-18T23:23:47;-3.30;99.90
41985;DHT22;28319;48.116;10.818;2022-12-18T23:28:49;-3.40;99.90
41985;DHT22;28319;48.116;10.818;2022-12-18T23:33:55;-3.40;99.90
41985;DHT22;28319;48.116;10.818;2022-12-18T23:38:59;-3.10;99.90
41985;DHT22;28319;48.116;10.818;2022-12-18T23:44:01;-3.20;99.90
41985;DHT22;28319;48.116;10.818;2022-12-18T23:49:05;-3.40;99.90
41985;DHT22;28319;48.116;10.818;2022-12-18T23:54:07;-3.40;99.90
41985;DHT22;28319;48.116;10.818;2022-12-18T23:59:10;-3.40;99.90
